sensor_id;sensor_type;location;lat;lon;timestamp;temperature;humidity
39277;DHT22;63149;48.086;-1.606;2022-12-16T06:00:16;-1.20;99.90
39277;DHT22;63149;48.086;-1.606;2022-12-16T06:03:01;-1.20;99.90
39277;DHT22;63149;48.086;-1.606;2022-12-16T06:05:45;-1.20;99.90
39277;DHT22;63149;48.086;-1.606;2022-12-16T06:08:29;-1.20;99.90
39277;DHT22;63149;48.086;-1.606;2022-12-16T06:11:10;-1.20;99.90
39277;DHT22;63149;48.086;-1.606;2022-12-16T06:14:09;-1.20;99.90
39277;DHT22;63149;48.086;-1.606;2022-12-16T06:16:57;-1.30;99.90
39277;DHT22;63149;48.086;-1.606;2022-12-16T06:19:41;-1.30;99.90
39277;DHT22;63149;48.086;-1.606;2022-12-16T06:22:26;-1.30;99.90
39277;DHT22;63149;48.086;-1.606;2022-12-16T06:25:10;-1.40;99.90
39277;DHT22;63149;48.086;-1.606;2022-12-16T06:27:55;-1.30;99.90
39277;DHT22;63149;48.086;-1.606;2022-12-16T06:30:39;-1.40;99.90
39277;DHT22;63149;48.086;-1.606;2022-12-16T06:33:25;-1.40;99.90
39277;DHT22;63149;48.086;-1.606;2022-12-16T06:36:10;-1.40;99.90
39277;DHT22;63149;48.086;-1.606;2022-12-16T06:38:55;-1.40;99.90
39277;DHT22;63149;48.086;-1.606;2022-12-16T06:41:40;-1.40;99.90
39277;DHT22;63149;48.086;-1.606;2022-12-16T06:44:24;-1.50;99.90
39277;DHT22;63149;48.086;-1.606;2022-12-16T06:47:09;-1.40;99.90
39277;DHT22;63149;48.086;-1.606;2022-12-16T06:49:54;-1.40;99.90
39277;DHT22;63149;48.086;-1.606;2022-12-16T06:52:40;-1.40;99.90
39277;DHT22;63149;48.086;-1.606;2022-12-16T06:55:26;-1.40;99.90
39277;DHT22;63149;48.086;-1.606;2022-12-16T06:58:10;-1.50;99.90
39277;DHT22;63149;48.086;-1.606;2022-12-16T07:00:54;-1.50;99.90
39277;DHT22;63149;48.086;-1.606;2022-12-16T07:03:39;-1.50;99.90
39277;DHT22;63149;48.086;-1.606;2022-12-16T07:06:25;-1.60;99.90
39277;DHT22;63149;48.086;-1.606;2022-12-16T07:09:09;-1.60;99.90
39277;DHT22;63149;48.086;-1.606;2022-12-16T07:11:54;-1.60;99.90
39277;DHT22;63149;48.086;-1.606;2022-12-16T07:14:38;-1.60;99.90
39277;DHT22;63149;48.086;-1.606;2022-12-16T07:17:23;-1.60;99.90
39277;DHT22;63149;48.086;-1.606;2022-12-16T07:20:08;-1.60;99.90
39277;DHT22;63149;48.086;-1.606;2022-12-16T07:22:54;-1.70;99.90
39277;DHT22;63149;48.086;-1.606;2022-12-16T07:25:38;-1.70;99.90
39277;DHT22;63149;48.086;-1.606;2022-12-16T07:28:23;-1.70;99.90
39277;DHT22;63149;48.086;-1.606;2022-12-16T07:31:07;-1.70;99.90
39277;DHT22;63149;48.086;-1.606;2022-12-16T07:33:52;-1.60;99.90
39277;DHT22;63149;48.086;-1.606;2022-12-16T07:36:36;-1.60;99.90
39277;DHT22;63149;48.086;-1.606;2022-12-16T07:39:21;-1.60;99.90
39277;DHT22;63149;48.086;-1.606;2022-12-16T07:42:06;-1.50;99.90
39277;DHT22;63149;48.086;-1.606;2022-12-16T07:44:50;-1.50;99.90
39277;DHT22;63149;48.086;-1.606;2022-12-16T07:47:34;-1.50;99.90
39277;DHT22;63149;48.086;-1.606;2022-12-16T07:50:18;-1.50;99.90
39277;DHT22;63149;48.086;-1.606;2022-12-16T07:53:02;-1.40;99.90
39277;DHT22;63149;48.086;-1.606;2022-12-16T07:55:44;-1.40;99.90
39277;DHT22;63149;48.086;-1.606;2022-12-16T07:58:29;-1.50;99.90
39277;DHT22;63149;48.086;-1.606;2022-12-16T08:01:14;-1.50;99.90
39277;DHT22;63149;48.086;-1.606;2022-12-16T08:03:58;-1.40;99.90
39277;DHT22;63149;48.086;-1.606;2022-12-16T08:06:43;-1.40;99.90
39277;DHT22;63149;48.086;-1.606;2022-12-16T08:09:28;-1.30;99.90
39277;DHT22;63149;48.086;-1.606;2022-12-16T08:12:14;-1.20;99.90
39277;DHT22;63149;48.086;-1.606;2022-12-16T08:14:59;-1.20;99.90
39277;DHT22;63149;48.086;-1.606;2022-12-16T08:17:47;-1.20;99.90
39277;DHT22;63149;48.086;-1.606;2022-12-16T08:20:31;-1.10;99.90
39277;DHT22;63149;48.086;-1.606;2022-12-16T08:23:16;-1.00;99.90
39277;DHT22;63149;48.086;-1.606;2022-12-16T08:26:00;-0.90;99.90
39277;DHT22;63149;48.086;-1.606;2022-12-16T08:28:46;-0.90;99.90
39277;DHT22;63149;48.086;-1.606;2022-12-16T08:31:31;-0.90;99.90
39277;DHT22;63149;48.086;-1.606;2022-12-16T08:34:16;-0.80;99.90
39277;DHT22;63149;48.086;-1.606;2022-12-16T08:37:00;-0.80;99.90
39277;DHT22;63149;48.086;-1.606;2022-12-16T08:39:44;-0.70;99.90
39277;DHT22;63149;48.086;-1.606;2022-12-16T08:42:29;-0.70;99.90
39277;DHT22;63149;48.086;-1.606;2022-12-16T08:45:15;-0.60;99.90
39277;DHT22;63149;48.086;-1.606;2022-12-16T08:47:59;-0.50;99.90
39277;DHT22;63149;48.086;-1.606;2022-12-16T08:50:43;-0.40;99.90
39277;DHT22;63149;48.086;-1.606;2022-12-16T08:53:30;-0.30;99.90
39277;DHT22;63149;48.086;-1.606;2022-12-16T08:56:14;-0.30;99.90
39277;DHT22;63149;48.086;-1.606;2022-12-16T08:58:59;-0.30;99.90
39277;DHT22;63149;48.086;-1.606;2022-12-16T09:01:56;-0.20;99.90
39277;DHT22;63149;48.086;-1.606;2022-12-16T09:04:40;-0.20;99.90
39277;DHT22;63149;48.086;-1.606;2022-12-16T09:07:25;-0.10;99.90
39277;DHT22;63149;48.086;-1.606;2022-12-16T09:10:09;0.00;99.90
39277;DHT22;63149;48.086;-1.606;2022-12-16T09:12:59;0.00;99.90
39277;DHT22;63149;48.086;-1.606;2022-12-16T09:15:47;0.10;99.90
39277;DHT22;63149;48.086;-1.606;2022-12-16T09:18:33;0.20;99.90
39277;DHT22;63149;48.086;-1.606;2022-12-16T09:21:20;0.30;99.90
39277;DHT22;63149;48.086;-1.606;2022-12-16T09:24:05;0.40;99.90
39277;DHT22;63149;48.086;-1.606;2022-12-16T09:26:49;0.50;99.90
39277;DHT22;63149;48.086;-1.606;2022-12-16T09:29:30;0.60;99.90
39277;DHT22;63149;48.086;-1.606;2022-12-16T09:32:15;0.70;99.90
39277;DHT22;63149;48.086;-1.606;2022-12-16T09:35:00;0.90;99.90
39277;DHT22;63149;48.086;-1.606;2022-12-16T09:37:46;1.00;99.90
39277;DHT22;63149;48.086;-1.606;2022-12-16T09:40:31;1.30;99.90
39277;DHT22;63149;48.086;-1.606;2022-12-16T09:43:38;1.40;99.90
39277;DHT22;63149;48.086;-1.606;2022-12-16T09:46:31;1.80;99.90
39277;DHT22;63149;48.086;-1.606;2022-12-16T09:49:24;2.00;99.90
39277;DHT22;63149;48.086;-1.606;2022-12-16T09:52:15;2.60;99.90
39277;DHT22;63149;48.086;-1.606;2022-12-16T09:55:01;3.00;99.90
39277;DHT22;63149;48.086;-1.606;2022-12-16T09:57:47;3.20;99.90
39277;DHT22;63149;48.086;-1.606;2022-12-16T10:00:32;3.60;99.90
39277;DHT22;63149;48.086;-1.606;2022-12-16T10:03:21;4.00;99.90
39277;DHT22;63149;48.086;-1.606;2022-12-16T10:06:10;4.80;99.90
39277;DHT22;63149;48.086;-1.606;2022-12-16T10:09:06;5.10;99.90
39277;DHT22;63149;48.086;-1.606;2022-12-16T10:12:08;5.40;99.90
39277;DHT22;63149;48.086;-1.606;2022-12-16T10:14:59;5.70;99.90
39277;DHT22;63149;48.086;-1.606;2022-12-16T10:17:45;5.60;99.90
39277;DHT22;63149;48.086;-1.606;2022-12-16T10:20:34;5.60;99.90
39277;DHT22;63149;48.086;-1.606;2022-12-16T10:23:27;6.00;99.90
39277;DHT22;63149;48.086;-1.606;2022-12-16T10:26:20;5.60;99.90
39277;DHT22;63149;48.086;-1.606;2022-12-16T10:29:20;5.10;99.90
39277;DHT22;63149;48.086;-1.606;2022-12-16T10:32:12;5.00;99.90
39277;DHT22;63149;48.086;-1.606;2022-12-16T10:34:57;5.20;99.90
39277;DHT22;63149;48.086;-1.606;2022-12-16T10:37:42;4.90;99.90
39277;DHT22;63149;48.086;-1.606;2022-12-16T10:40:29;5.10;99.90
39277;DHT22;63149;48.086;-1.606;2022-12-16T10:43:20;5.30;99.90
39277;DHT22;63149;48.086;-1.606;2022-12-16T10:46:24;5.20;99.90
39277;DHT22;63149;48.086;-1.606;2022-12-16T10:49:13;5.40;99.90
39277;DHT22;63149;48.086;-1.606;2022-12-16T10:51:58;5.50;99.90
39277;DHT22;63149;48.086;-1.606;2022-12-16T10:54:45;5.30;99.90
39277;DHT22;63149;48.086;-1.606;2022-12-16T10:57:37;5.10;99.90
39277;DHT22;63149;48.086;-1.606;2022-12-16T11:00:41;5.00;99.90
39277;DHT22;63149;48.086;-1.606;2022-12-16T11:03:27;4.80;99.90
39277;DHT22;63149;48.086;-1.606;2022-12-16T11:06:15;4.70;99.90
39277;DHT22;63149;48.086;-1.606;2022-12-16T11:09:14;4.60;99.90
39277;DHT22;63149;48.086;-1.606;2022-12-16T11:12:13;4.50;99.90
39277;DHT22;63149;48.086;-1.606;2022-12-16T11:14:57;4.50;99.90
39277;DHT22;63149;48.086;-1.606;2022-12-16T11:18:00;4.40;99.90
39277;DHT22;63149;48.086;-1.606;2022-12-16T11:21:04;4.40;99.90
39277;DHT22;63149;48.086;-1.606;2022-12-16T11:24:04;4.50;99.90
39277;DHT22;63149;48.086;-1.606;2022-12-16T11:26:52;4.60;99.90
39277;DHT22;63149;48.086;-1.606;2022-12-16T11:29:49;4.50;99.90
39277;DHT22;63149;48.086;-1.606;2022-12-16T11:32:34;4.50;99.90
39277;DHT22;63149;48.086;-1.606;2022-12-16T11:35:24;4.50;99.90
39277;DHT22;63149;48.086;-1.606;2022-12-16T11:38:17;4.60;99.90
39277;DHT22;63149;48.086;-1.606;2022-12-16T11:41:04;4.70;99.90
39277;DHT22;63149;48.086;-1.606;2022-12-16T11:43:50;4.70;99.90
39277;DHT22;63149;48.086;-1.606;2022-12-16T11:46:35;4.70;99.90
39277;DHT22;63149;48.086;-1.606;2022-12-16T11:49:23;4.80;99.90
39277;DHT22;63149;48.086;-1.606;2022-12-16T11:52:13;4.90;99.90
39277;DHT22;63149;48.086;-1.606;2022-12-16T11:55:06;5.00;99.90
39277;DHT22;63149;48.086;-1.606;2022-12-16T11:58:01;5.20;99.90
39277;DHT22;63149;48.086;-1.606;2022-12-16T12:00:53;5.40;99.90
39277;DHT22;63149;48.086;-1.606;2022-12-16T12:03:42;5.80;99.90
39277;DHT22;63149;48.086;-1.606;2022-12-16T12:06:31;6.00;99.90
39277;DHT22;63149;48.086;-1.606;2022-12-16T12:09:21;6.50;99.90
39277;DHT22;63149;48.086;-1.606;2022-12-16T12:12:13;6.60;99.90
39277;DHT22;63149;48.086;-1.606;2022-12-16T12:15:12;6.60;99.90
39277;DHT22;63149;48.086;-1.606;2022-12-16T12:18:07;6.60;99.90
39277;DHT22;63149;48.086;-1.606;2022-12-16T12:20:59;7.10;99.90
39277;DHT22;63149;48.086;-1.606;2022-12-16T12:23:51;7.20;99.90
39277;DHT22;63149;48.086;-1.606;2022-12-16T12:26:43;7.20;99.90
39277;DHT22;63149;48.086;-1.606;2022-12-16T12:29:38;7.70;99.90
39277;DHT22;63149;48.086;-1.606;2022-12-16T12:32:34;7.60;99.90
39277;DHT22;63149;48.086;-1.606;2022-12-16T12:35:35;8.00;99.90
39277;DHT22;63149;48.086;-1.606;2022-12-16T12:38:26;8.50;99.90
39277;DHT22;63149;48.086;-1.606;2022-12-16T12:41:17;8.80;99.90
39277;DHT22;63149;48.086;-1.606;2022-12-16T12:44:09;9.00;99.90
39277;DHT22;63149;48.086;-1.606;2022-12-16T12:47:02;9.10;99.90
39277;DHT22;63149;48.086;-1.606;2022-12-16T12:49:52;8.60;99.90
39277;DHT22;63149;48.086;-1.606;2022-12-16T12:55:56;9.00;99.90
39277;DHT22;63149;48.086;-1.606;2022-12-16T12:58:46;8.80;99.90
39277;DHT22;63149;48.086;-1.606;2022-12-16T13:01:34;8.80;99.90
39277;DHT22;63149;48.086;-1.606;2022-12-16T13:04:21;8.70;99.90
39277;DHT22;63149;48.086;-1.606;2022-12-16T13:07:06;8.60;99.90
39277;DHT22;63149;48.086;-1.606;2022-12-16T13:10:17;8.50;99.90
39277;DHT22;63149;48.086;-1.606;2022-12-16T13:13:34;8.70;99.90
39277;DHT22;63149;48.086;-1.606;2022-12-16T13:19:55;8.80;99.90
39277;DHT22;63149;48.086;-1.606;2022-12-16T13:22:40;8.90;99.90
39277;DHT22;63149;48.086;-1.606;2022-12-16T13:25:42;8.60;99.90
39277;DHT22;63149;48.086;-1.606;2022-12-16T13:28:30;8.60;99.90
39277;DHT22;63149;48.086;-1.606;2022-12-16T13:31:15;8.70;99.90
39277;DHT22;63149;48.086;-1.606;2022-12-16T13:34:04;8.60;99.90
39277;DHT22;63149;48.086;-1.606;2022-12-16T13:36:55;8.10;99.90
39277;DHT22;63149;48.086;-1.606;2022-12-16T13:39:41;8.00;99.90
39277;DHT22;63149;48.086;-1.606;2022-12-16T13:42:51;7.70;99.90
39277;DHT22;63149;48.086;-1.606;2022-12-16T13:45:38;7.40;99.90
39277;DHT22;63149;48.086;-1.606;2022-12-16T13:48:36;7.20;99.90
39277;DHT22;63149;48.086;-1.606;2022-12-16T13:51:57;7.00;99.90
39277;DHT22;63149;48.086;-1.606;2022-12-16T13:54:48;7.00;99.90
39277;DHT22;63149;48.086;-1.606;2022-12-16T13:57:38;6.80;99.90
39277;DHT22;63149;48.086;-1.606;2022-12-16T14:00:25;6.80;99.90
39277;DHT22;63149;48.086;-1.606;2022-12-16T14:03:13;6.70;99.90
39277;DHT22;63149;48.086;-1.606;2022-12-16T14:06:00;6.50;99.90
39277;DHT22;63149;48.086;-1.606;2022-12-16T14:08:48;6.50;99.90
39277;DHT22;63149;48.086;-1.606;2022-12-16T14:11:42;6.40;99.90
39277;DHT22;63149;48.086;-1.606;2022-12-16T14:14:32;6.40;99.90
39277;DHT22;63149;48.086;-1.606;2022-12-16T14:17:22;6.40;99.90
39277;DHT22;63149;48.086;-1.606;2022-12-16T14:20:14;6.40;99.90
39277;DHT22;63149;48.086;-1.606;2022-12-16T14:23:05;6.30;99.90
39277;DHT22;63149;48.086;-1.606;2022-12-16T14:25:57;6.30;99.90
39277;DHT22;63149;48.086;-1.606;2022-12-16T14:28:44;6.30;99.90
39277;DHT22;63149;48.086;-1.606;2022-12-16T14:31:34;6.30;99.90
39277;DHT22;63149;48.086;-1.606;2022-12-16T14:34:20;6.20;99.90
39277;DHT22;63149;48.086;-1.606;2022-12-16T14:37:11;6.20;99.90
39277;DHT22;63149;48.086;-1.606;2022-12-16T14:39:55;6.20;99.90
39277;DHT22;63149;48.086;-1.606;2022-12-16T14:42:41;6.20;99.90
39277;DHT22;63149;48.086;-1.606;2022-12-16T14:45:28;6.20;99.90
39277;DHT22;63149;48.086;-1.606;2022-12-16T14:48:14;6.20;99.90
39277;DHT22;63149;48.086;-1.606;2022-12-16T14:51:25;6.20;99.90
39277;DHT22;63149;48.086;-1.606;2022-12-16T14:54:18;6.10;99.90
39277;DHT22;63149;48.086;-1.606;2022-12-16T14:57:03;6.10;99.90
39277;DHT22;63149;48.086;-1.606;2022-12-16T14:59:59;6.10;99.90
39277;DHT22;63149;48.086;-1.606;2022-12-16T15:02:46;6.10;99.90
39277;DHT22;63149;48.086;-1.606;2022-12-16T15:05:34;6.00;99.90
39277;DHT22;63149;48.086;-1.606;2022-12-16T15:08:20;6.00;99.90
39277;DHT22;63149;48.086;-1.606;2022-12-16T15:11:06;6.00;99.90
39277;DHT22;63149;48.086;-1.606;2022-12-16T15:13:55;6.00;99.90
39277;DHT22;63149;48.086;-1.606;2022-12-16T15:16:42;5.90;99.90
39277;DHT22;63149;48.086;-1.606;2022-12-16T15:19:31;5.90;99.90
39277;DHT22;63149;48.086;-1.606;2022-12-16T15:22:18;5.90;99.90
39277;DHT22;63149;48.086;-1.606;2022-12-16T15:25:03;5.90;99.90
39277;DHT22;63149;48.086;-1.606;2022-12-16T15:27:53;5.80;99.90
39277;DHT22;63149;48.086;-1.606;2022-12-16T15:30:39;5.80;99.90
39277;DHT22;63149;48.086;-1.606;2022-12-16T15:33:27;5.70;99.90
39277;DHT22;63149;48.086;-1.606;2022-12-16T15:36:23;5.70;99.90
39277;DHT22;63149;48.086;-1.606;2022-12-16T15:39:18;5.60;99.90
39277;DHT22;63149;48.086;-1.606;2022-12-16T15:42:03;5.60;99.90
39277;DHT22;63149;48.086;-1.606;2022-12-16T15:44:49;5.60;99.90
39277;DHT22;63149;48.086;-1.606;2022-12-16T15:47:36;5.50;99.90
39277;DHT22;63149;48.086;-1.606;2022-12-16T15:50:24;5.50;99.90
39277;DHT22;63149;48.086;-1.606;2022-12-16T15:53:24;5.40;99.90
39277;DHT22;63149;48.086;-1.606;2022-12-16T15:56:15;5.40;99.90
39277;DHT22;63149;48.086;-1.606;2022-12-16T15:59:22;5.30;99.90
39277;DHT22;63149;48.086;-1.606;2022-12-16T16:02:14;5.30;99.90
39277;DHT22;63149;48.086;-1.606;2022-12-16T16:04:58;5.20;99.90
39277;DHT22;63149;48.086;-1.606;2022-12-16T16:07:44;5.20;99.90
39277;DHT22;63149;48.086;-1.606;2022-12-16T16:10:28;5.10;99.90
39277;DHT22;63149;48.086;-1.606;2022-12-16T16:13:15;5.00;99.90
39277;DHT22;63149;48.086;-1.606;2022-12-16T16:15:59;4.90;99.90
39277;DHT22;63149;48.086;-1.606;2022-12-16T16:18:44;4.80;99.90
39277;DHT22;63149;48.086;-1.606;2022-12-16T16:21:28;4.80;99.90
39277;DHT22;63149;48.086;-1.606;2022-12-16T16:24:15;4.70;99.90
39277;DHT22;63149;48.086;-1.606;2022-12-16T16:27:01;4.60;99.90
39277;DHT22;63149;48.086;-1.606;2022-12-16T16:29:47;4.50;99.90
39277;DHT22;63149;48.086;-1.606;2022-12-16T16:32:31;4.40;99.90
39277;DHT22;63149;48.086;-1.606;2022-12-16T16:35:15;4.40;99.90
39277;DHT22;63149;48.086;-1.606;2022-12-16T16:38:00;4.20;99.90
39277;DHT22;63149;48.086;-1.606;2022-12-16T16:40:46;4.10;99.90
39277;DHT22;63149;48.086;-1.606;2022-12-16T16:43:31;4.00;99.90
39277;DHT22;63149;48.086;-1.606;2022-12-16T16:46:29;3.90;99.90
39277;DHT22;63149;48.086;-1.606;2022-12-16T16:49:20;3.80;99.90
39277;DHT22;63149;48.086;-1.606;2022-12-16T16:52:09;3.70;99.90
39277;DHT22;63149;48.086;-1.606;2022-12-16T16:54:54;3.60;99.90
39277;DHT22;63149;48.086;-1.606;2022-12-16T16:57:39;3.50;99.90
39277;DHT22;63149;48.086;-1.606;2022-12-16T17:00:24;3.40;99.90
39277;DHT22;63149;48.086;-1.606;2022-12-16T17:03:08;3.40;99.90
39277;DHT22;63149;48.086;-1.606;2022-12-16T17:05:53;3.30;99.90
39277;DHT22;63149;48.086;-1.606;2022-12-16T17:08:37;3.20;99.90
39277;DHT22;63149;48.086;-1.606;2022-12-16T17:11:22;3.20;99.90
39277;DHT22;63149;48.086;-1.606;2022-12-16T17:14:10;3.20;99.90
39277;DHT22;63149;48.086;-1.606;2022-12-16T17:16:55;3.10;99.90
39277;DHT22;63149;48.086;-1.606;2022-12-16T17:19:39;3.10;99.90
39277;DHT22;63149;48.086;-1.606;2022-12-16T17:22:23;3.00;99.90
39277;DHT22;63149;48.086;-1.606;2022-12-16T17:25:09;3.00;99.90
39277;DHT22;63149;48.086;-1.606;2022-12-16T17:28:02;2.90;99.90
39277;DHT22;63149;48.086;-1.606;2022-12-16T17:30:48;2.80;99.90
39277;DHT22;63149;48.086;-1.606;2022-12-16T17:33:32;2.80;99.90
39277;DHT22;63149;48.086;-1.606;2022-12-16T17:36:17;2.70;99.90
39277;DHT22;63149;48.086;-1.606;2022-12-16T17:39:03;2.70;99.90
39277;DHT22;63149;48.086;-1.606;2022-12-16T17:41:47;2.70;99.90
39277;DHT22;63149;48.086;-1.606;2022-12-16T17:44:31;2.60;99.90
39277;DHT22;63149;48.086;-1.606;2022-12-16T17:47:17;2.50;99.90
39277;DHT22;63149;48.086;-1.606;2022-12-16T17:50:03;2.50;99.90
39277;DHT22;63149;48.086;-1.606;2022-12-16T17:52:47;2.40;99.90
39277;DHT22;63149;48.086;-1.606;2022-12-16T17:55:32;2.30;99.90
39277;DHT22;63149;48.086;-1.606;2022-12-16T17:58:17;2.30;99.90
39277;DHT22;63149;48.086;-1.606;2022-12-16T18:01:03;2.20;99.90
39277;DHT22;63149;48.086;-1.606;2022-12-16T18:03:49;2.10;99.90
39277;DHT22;63149;48.086;-1.606;2022-12-16T18:06:34;2.00;99.90
39277;DHT22;63149;48.086;-1.606;2022-12-16T18:09:18;2.00;99.90
39277;DHT22;63149;48.086;-1.606;2022-12-16T18:12:17;1.90;99.90
39277;DHT22;63149;48.086;-1.606;2022-12-16T18:15:03;1.90;99.90
39277;DHT22;63149;48.086;-1.606;2022-12-16T18:17:47;1.80;99.90
39277;DHT22;63149;48.086;-1.606;2022-12-16T18:20:45;1.70;99.90
39277;DHT22;63149;48.086;-1.606;2022-12-16T18:23:29;1.70;99.90
39277;DHT22;63149;48.086;-1.606;2022-12-16T18:26:14;1.70;99.90
39277;DHT22;63149;48.086;-1.606;2022-12-16T18:28:59;1.60;99.90
39277;DHT22;63149;48.086;-1.606;2022-12-16T18:31:44;1.60;99.90
39277;DHT22;63149;48.086;-1.606;2022-12-16T18:34:28;1.50;99.90
39277;DHT22;63149;48.086;-1.606;2022-12-16T18:37:14;1.40;99.90
39277;DHT22;63149;48.086;-1.606;2022-12-16T18:39:58;1.40;99.90
39277;DHT22;63149;48.086;-1.606;2022-12-16T18:42:43;1.40;99.90
39277;DHT22;63149;48.086;-1.606;2022-12-16T18:45:27;1.30;99.90
39277;DHT22;63149;48.086;-1.606;2022-12-16T18:48:12;1.30;99.90
39277;DHT22;63149;48.086;-1.606;2022-12-16T18:50:58;1.20;99.90
39277;DHT22;63149;48.086;-1.606;2022-12-16T18:53:44;1.20;99.90
39277;DHT22;63149;48.086;-1.606;2022-12-16T18:56:29;1.10;99.90
39277;DHT22;63149;48.086;-1.606;2022-12-16T18:59:13;1.10;99.90
39277;DHT22;63149;48.086;-1.606;2022-12-16T19:01:58;1.10;99.90
39277;DHT22;63149;48.086;-1.606;2022-12-16T19:04:42;0.90;99.90
39277;DHT22;63149;48.086;-1.606;2022-12-16T19:07:26;0.90;99.90
39277;DHT22;63149;48.086;-1.606;2022-12-16T19:10:12;0.90;99.90
39277;DHT22;63149;48.086;-1.606;2022-12-16T19:12:54;0.80;99.90
39277;DHT22;63149;48.086;-1.606;2022-12-16T19:15:38;0.80;99.90
39277;DHT22;63149;48.086;-1.606;2022-12-16T19:18:23;0.80;99.90
39277;DHT22;63149;48.086;-1.606;2022-12-16T19:21:08;0.80;99.90
39277;DHT22;63149;48.086;-1.606;2022-12-16T19:23:53;0.70;99.90
39277;DHT22;63149;48.086;-1.606;2022-12-16T19:26:38;0.70;99.90
39277;DHT22;63149;48.086;-1.606;2022-12-16T19:29:23;0.70;99.90
39277;DHT22;63149;48.086;-1.606;2022-12-16T19:32:08;0.70;99.90
39277;DHT22;63149;48.086;-1.606;2022-12-16T19:34:52;0.60;99.90
39277;DHT22;63149;48.086;-1.606;2022-12-16T19:37:36;0.60;99.90
39277;DHT22;63149;48.086;-1.606;2022-12-16T19:40:21;0.50;99.90
39277;DHT22;63149;48.086;-1.606;2022-12-16T19:43:07;0.40;99.90
39277;DHT22;63149;48.086;-1.606;2022-12-16T19:45:52;0.40;99.90
39277;DHT22;63149;48.086;-1.606;2022-12-16T19:48:37;0.40;99.90
39277;DHT22;63149;48.086;-1.606;2022-12-16T19:51:21;0.30;99.90
39277;DHT22;63149;48.086;-1.606;2022-12-16T19:54:06;0.30;99.90
39277;DHT22;63149;48.086;-1.606;2022-12-16T19:56:50;0.30;99.90
39277;DHT22;63149;48.086;-1.606;2022-12-16T19:59:36;0.30;99.90
39277;DHT22;63149;48.086;-1.606;2022-12-16T20:02:20;0.20;99.90
39277;DHT22;63149;48.086;-1.606;2022-12-16T20:05:05;0.20;99.90
39277;DHT22;63149;48.086;-1.606;2022-12-16T20:07:46;0.20;99.90
39277;DHT22;63149;48.086;-1.606;2022-12-16T20:10:31;0.20;99.90
39277;DHT22;63149;48.086;-1.606;2022-12-16T20:13:15;0.20;99.90
39277;DHT22;63149;48.086;-1.606;2022-12-16T20:16:02;0.10;99.90
39277;DHT22;63149;48.086;-1.606;2022-12-16T20:18:55;0.10;99.90
39277;DHT22;63149;48.086;-1.606;2022-12-16T20:21:40;0.00;99.90
39277;DHT22;63149;48.086;-1.606;2022-12-16T20:24:24;0.00;99.90
39277;DHT22;63149;48.086;-1.606;2022-12-16T20:27:09;0.00;99.90
39277;DHT22;63149;48.086;-1.606;2022-12-16T20:29:53;0.00;99.90
39277;DHT22;63149;48.086;-1.606;2022-12-16T20:32:39;0.00;99.90
39277;DHT22;63149;48.086;-1.606;2022-12-16T20:35:24;0.00;99.90
39277;DHT22;63149;48.086;-1.606;2022-12-16T20:38:08;-0.10;99.90
39277;DHT22;63149;48.086;-1.606;2022-12-16T20:40:55;-0.10;99.90
39277;DHT22;63149;48.086;-1.606;2022-12-16T20:43:40;-0.20;99.90
39277;DHT22;63149;48.086;-1.606;2022-12-16T20:46:26;-0.20;99.90
39277;DHT22;63149;48.086;-1.606;2022-12-16T20:49:12;-0.30;99.90
39277;DHT22;63149;48.086;-1.606;2022-12-16T20:51:56;-0.30;99.90
39277;DHT22;63149;48.086;-1.606;2022-12-16T20:54:42;-0.30;99.90
39277;DHT22;63149;48.086;-1.606;2022-12-16T20:57:26;-0.40;99.90
39277;DHT22;63149;48.086;-1.606;2022-12-16T21:00:12;-0.40;99.90
39277;DHT22;63149;48.086;-1.606;2022-12-16T21:02:57;-0.30;99.90
39277;DHT22;63149;48.086;-1.606;2022-12-16T21:05:43;-0.40;99.90
39277;DHT22;63149;48.086;-1.606;2022-12-16T21:08:28;-0.40;99.90
39277;DHT22;63149;48.086;-1.606;2022-12-16T21:11:13;-0.50;99.90
39277;DHT22;63149;48.086;-1.606;2022-12-16T21:13:57;-0.50;99.90
39277;DHT22;63149;48.086;-1.606;2022-12-16T21:16:42;-0.60;99.90
39277;DHT22;63149;48.086;-1.606;2022-12-16T21:19:26;-0.60;99.90
39277;DHT22;63149;48.086;-1.606;2022-12-16T21:22:26;-0.60;99.90
39277;DHT22;63149;48.086;-1.606;2022-12-16T21:25:11;-0.60;99.90
39277;DHT22;63149;48.086;-1.606;2022-12-16T21:27:56;-0.70;99.90
39277;DHT22;63149;48.086;-1.606;2022-12-16T21:30:40;-0.80;99.90
39277;DHT22;63149;48.086;-1.606;2022-12-16T21:33:25;-0.80;99.90
39277;DHT22;63149;48.086;-1.606;2022-12-16T21:36:09;-0.80;99.90
39277;DHT22;63149;48.086;-1.606;2022-12-16T21:38:55;-0.70;99.90
39277;DHT22;63149;48.086;-1.606;2022-12-16T21:41:39;-0.70;99.90
39277;DHT22;63149;48.086;-1.606;2022-12-16T21:44:24;-0.80;99.90
39277;DHT22;63149;48.086;-1.606;2022-12-16T21:47:08;-0.80;99.90
39277;DHT22;63149;48.086;-1.606;2022-12-16T21:49:52;-0.80;99.90
39277;DHT22;63149;48.086;-1.606;2022-12-16T21:52:37;-0.80;99.90
39277;DHT22;63149;48.086;-1.606;2022-12-16T21:55:22;-0.80;99.90
39277;DHT22;63149;48.086;-1.606;2022-12-16T21:58:09;-0.90;99.90
39277;DHT22;63149;48.086;-1.606;2022-12-16T22:00:54;-0.90;99.90
39277;DHT22;63149;48.086;-1.606;2022-12-16T22:03:38;-1.00;99.90
39277;DHT22;63149;48.086;-1.606;2022-12-16T22:06:23;-1.00;99.90
39277;DHT22;63149;48.086;-1.606;2022-12-16T22:09:07;-1.10;99.90
39277;DHT22;63149;48.086;-1.606;2022-12-16T22:11:52;-1.20;99.90
39277;DHT22;63149;48.086;-1.606;2022-12-16T22:14:37;-1.20;99.90
39277;DHT22;63149;48.086;-1.606;2022-12-16T22:17:21;-1.10;99.90
39277;DHT22;63149;48.086;-1.606;2022-12-16T22:20:07;-1.10;99.90
39277;DHT22;63149;48.086;-1.606;2022-12-16T22:22:51;-1.10;99.90
39277;DHT22;63149;48.086;-1.606;2022-12-16T22:25:36;-1.10;99.90
39277;DHT22;63149;48.086;-1.606;2022-12-16T22:28:21;-1.10;99.90
39277;DHT22;63149;48.086;-1.606;2022-12-16T22:31:06;-1.10;99.90
39277;DHT22;63149;48.086;-1.606;2022-12-16T22:33:50;-1.10;99.90
39277;DHT22;63149;48.086;-1.606;2022-12-16T22:36:35;-1.20;99.90
39277;DHT22;63149;48.086;-1.606;2022-12-16T22:39:20;-1.30;99.90
39277;DHT22;63149;48.086;-1.606;2022-12-16T22:42:04;-1.30;99.90
39277;DHT22;63149;48.086;-1.606;2022-12-16T22:44:50;-1.40;99.90
39277;DHT22;63149;48.086;-1.606;2022-12-16T22:47:35;-1.40;99.90
39277;DHT22;63149;48.086;-1.606;2022-12-16T22:50:19;-1.40;99.90
39277;DHT22;63149;48.086;-1.606;2022-12-16T22:53:03;-1.40;99.90
39277;DHT22;63149;48.086;-1.606;2022-12-16T22:55:50;-1.40;99.90
39277;DHT22;63149;48.086;-1.606;2022-12-16T22:58:34;-1.30;99.90
39277;DHT22;63149;48.086;-1.606;2022-12-16T23:01:19;-1.40;99.90
39277;DHT22;63149;48.086;-1.606;2022-12-16T23:04:04;-1.40;99.90
39277;DHT22;63149;48.086;-1.606;2022-12-16T23:06:48;-1.40;99.90
39277;DHT22;63149;48.086;-1.606;2022-12-16T23:09:33;-1.60;99.90
39277;DHT22;63149;48.086;-1.606;2022-12-16T23:12:17;-1.40;99.90
39277;DHT22;63149;48.086;-1.606;2022-12-16T23:15:02;-1.50;99.90
39277;DHT22;63149;48.086;-1.606;2022-12-16T23:17:49;-1.50;99.90
39277;DHT22;63149;48.086;-1.606;2022-12-16T23:20:33;-1.50;99.90
39277;DHT22;63149;48.086;-1.606;2022-12-16T23:23:17;-1.50;99.90
39277;DHT22;63149;48.086;-1.606;2022-12-16T23:26:03;-1.50;99.90
39277;DHT22;63149;48.086;-1.606;2022-12-16T23:28:49;-1.50;99.90
39277;DHT22;63149;48.086;-1.606;2022-12-16T23:31:33;-1.60;99.90
39277;DHT22;63149;48.086;-1.606;2022-12-16T23:34:19;-1.60;99.90
39277;DHT22;63149;48.086;-1.606;2022-12-16T23:37:03;-1.60;99.90